createdAt,value
2023-02-18T00:02:48.360Z,0.70
2023-02-18T00:07:52.484Z,0.77
2023-02-18T00:12:55.885Z,0.63
2023-02-18T00:18:00.682Z,0.50
2023-02-18T00:23:04.097Z,0.50
2023-02-18T00:28:07.432Z,0.80
2023-02-18T00:33:12.100Z,0.60
2023-02-18T00:38:15.406Z,0.75
2023-02-18T00:43:19.743Z,0.70
2023-02-18T00:48:24.560Z,1.00
2023-02-18T00:53:28.046Z,0.80
2023-02-18T00:58:33.126Z,0.68
2023-02-18T01:03:38.421Z,0.80
2023-02-18T01:08:42.242Z,0.80
2023-02-18T01:13:45.633Z,0.70
2023-02-18T01:18:50.335Z,0.98
2023-02-18T01:23:53.745Z,0.70
2023-02-18T01:28:57.089Z,0.60
2023-02-18T01:34:02.511Z,0.60
2023-02-18T01:39:07.004Z,0.90
2023-02-18T01:44:13.451Z,0.55
2023-02-18T01:49:25.092Z,1.10
2023-02-18T01:54:33.010Z,0.68
2023-02-18T01:59:40.255Z,0.50
2023-02-18T02:04:45.891Z,0.80
2023-02-18T02:09:52.212Z,0.60
2023-02-18T02:15:30.320Z,0.73
2023-02-18T02:21:06.167Z,0.55
2023-02-18T02:26:52.117Z,0.60
2023-02-18T02:32:10.748Z,0.68
2023-02-18T02:37:19.542Z,0.43
2023-02-18T02:42:31.046Z,0.60
2023-02-18T02:47:41.534Z,0.50
2023-02-18T02:52:51.974Z,0.60
2023-02-18T02:57:58.133Z,0.50
2023-02-18T03:03:34.475Z,0.70
2023-02-18T03:08:48.382Z,0.75
2023-02-18T03:14:03.831Z,0.50
2023-02-18T03:19:16.144Z,0.43
2023-02-18T03:24:25.748Z,0.40
2023-02-18T03:29:30.134Z,0.50
2023-02-18T03:34:39.522Z,0.50
2023-02-18T03:39:48.166Z,0.60
2023-02-18T03:44:52.475Z,0.60
2023-02-18T03:49:57.794Z,0.50
2023-02-18T03:55:03.032Z,0.50
2023-02-18T04:00:08.702Z,0.60
2023-02-18T04:05:12.414Z,0.70
2023-02-18T04:10:17.393Z,0.30
2023-02-18T04:15:20.617Z,0.40
2023-02-18T04:20:24.209Z,0.50
2023-02-18T04:25:29.024Z,0.70
2023-02-18T04:30:36.017Z,0.50
2023-02-18T04:35:41.986Z,0.70
2023-02-18T04:40:46.734Z,0.73
2023-02-18T04:45:50.157Z,0.60
2023-02-18T04:50:53.510Z,0.50
2023-02-18T04:55:58.750Z,0.60
2023-02-18T05:01:05.925Z,0.40
2023-02-18T05:06:09.713Z,0.40
2023-02-18T05:11:14.605Z,0.50
2023-02-18T05:16:28.180Z,0.50
2023-02-18T05:21:31.980Z,0.38
2023-02-18T05:26:37.144Z,0.50
2023-02-18T05:31:40.641Z,0.60
2023-02-18T05:36:44.036Z,0.60
2023-02-18T05:41:48.608Z,0.43
2023-02-18T05:46:52.105Z,0.45
2023-02-18T05:51:56.569Z,0.30
2023-02-18T05:57:01.326Z,0.43
2023-02-18T06:02:04.718Z,0.50
2023-02-18T06:07:08.151Z,0.40
2023-02-18T06:12:12.811Z,0.55
2023-02-18T06:17:16.376Z,0.40
2023-02-18T06:22:19.725Z,0.55
2023-02-18T06:27:24.531Z,0.50
2023-02-18T06:32:27.887Z,0.60
2023-02-18T06:37:31.200Z,0.68
2023-02-18T06:42:36.866Z,0.45
2023-02-18T06:47:41.193Z,0.50
2023-02-18T06:52:44.447Z,0.47
2023-02-18T06:57:51.113Z,0.45
2023-02-18T07:02:54.424Z,0.43
2023-02-18T07:08:03.535Z,0.52
2023-02-18T07:13:08.893Z,0.65
2023-02-18T07:18:12.350Z,0.70
2023-02-18T07:23:15.726Z,0.70
2023-02-18T07:28:20.551Z,0.70
2023-02-18T07:33:24.918Z,0.70
2023-02-18T07:38:29.142Z,0.50
2023-02-18T07:43:33.850Z,0.70
2023-02-18T07:48:37.667Z,0.50
2023-02-18T07:53:42.362Z,0.60
2023-02-18T07:58:51.370Z,0.75
2023-02-18T08:03:54.784Z,0.50
2023-02-18T08:08:59.383Z,0.60
2023-02-18T08:14:04.285Z,0.60
2023-02-18T08:19:10.078Z,0.65
2023-02-18T08:24:14.614Z,0.40
2023-02-18T08:29:33.835Z,0.40
2023-02-18T08:34:38.349Z,0.70
2023-02-18T08:39:41.873Z,0.68
2023-02-18T08:44:47.628Z,0.80
2023-02-18T08:49:54.368Z,0.50
2023-02-18T08:55:05.481Z,0.60
2023-02-18T09:00:14.500Z,0.60
2023-02-18T09:05:19.258Z,0.68
2023-02-18T09:10:23.020Z,0.40
2023-02-18T09:15:28.074Z,0.50
2023-02-18T09:20:32.605Z,0.57
2023-02-18T09:25:36.178Z,0.40
2023-02-18T09:30:42.430Z,0.50
2023-02-18T09:35:47.945Z,0.60
2023-02-18T09:40:54.907Z,0.50
2023-02-18T09:46:01.553Z,0.52
2023-02-18T09:51:05.347Z,0.43
2023-02-18T09:56:11.622Z,0.50
2023-02-18T10:01:21.831Z,0.50
2023-02-18T10:06:28.665Z,0.40
2023-02-18T10:11:34.182Z,0.32
2023-02-18T10:16:41.431Z,0.40
2023-02-18T10:21:45.684Z,0.40
2023-02-18T10:26:49.930Z,0.38
2023-02-18T10:32:00.862Z,0.50
2023-02-18T10:37:15.929Z,0.50
2023-02-18T10:42:31.456Z,0.50
2023-02-18T10:47:40.892Z,0.40
2023-02-18T10:52:47.352Z,0.47
2023-02-18T10:57:53.906Z,0.57
2023-02-18T11:03:20.881Z,0.43
2023-02-18T11:08:27.708Z,0.60
2023-02-18T11:13:32.910Z,0.40
2023-02-18T11:19:15.553Z,0.40
2023-02-18T11:24:24.302Z,0.50
2023-02-18T11:29:31.740Z,0.50
2023-02-18T11:34:36.983Z,0.43
2023-02-18T11:39:55.277Z,0.70
2023-02-18T11:45:29.048Z,0.40
2023-02-18T11:50:35.557Z,0.50
2023-02-18T11:55:55.541Z,0.40
2023-02-18T12:01:06.650Z,0.40
2023-02-18T12:06:21.532Z,0.60
2023-02-18T12:11:32.946Z,0.50
2023-02-18T12:17:20.824Z,0.52
2023-02-18T12:22:43.594Z,0.60
2023-02-18T12:28:01.981Z,0.52
2023-02-18T12:33:14.638Z,0.52
2023-02-18T12:38:47.441Z,0.50
2023-02-18T12:44:04.394Z,0.60
2023-02-18T12:49:34.190Z,0.60
2023-02-18T12:55:08.109Z,0.57
2023-02-18T13:00:50.222Z,0.60
2023-02-18T13:06:03.594Z,0.50
2023-02-18T13:11:21.030Z,0.65
2023-02-18T13:16:28.036Z,0.50
2023-02-18T13:21:33.850Z,0.52
2023-02-18T13:26:37.773Z,0.52
2023-02-18T13:31:53.712Z,0.77
2023-02-18T13:37:06.927Z,0.80
2023-02-18T13:42:28.692Z,0.60
2023-02-18T13:47:47.402Z,0.80
2023-02-18T13:53:36.808Z,0.60
2023-02-18T13:58:46.510Z,0.70
2023-02-18T14:03:59.163Z,0.80
2023-02-18T14:09:22.363Z,0.63
2023-02-18T14:14:38.624Z,0.68
2023-02-18T14:19:43.472Z,0.50
2023-02-18T14:24:50.766Z,0.70
2023-02-18T14:30:05.875Z,0.60
2023-02-18T14:35:27.954Z,0.65
2023-02-18T14:40:52.299Z,0.50
2023-02-18T14:46:10.772Z,0.45
2023-02-18T14:51:30.736Z,0.65
2023-02-18T14:57:07.504Z,0.50
2023-02-18T15:02:27.912Z,0.60
2023-02-18T15:08:04.911Z,0.50
2023-02-18T15:13:15.446Z,0.73
2023-02-18T15:18:32.978Z,0.75
2023-02-18T15:23:41.255Z,0.70
2023-02-18T15:28:56.442Z,0.63
2023-02-18T15:34:01.771Z,0.60
2023-02-18T15:39:07.437Z,0.70
2023-02-18T15:44:18.052Z,0.98
2023-02-18T15:49:23.821Z,0.70
2023-02-18T15:54:29.082Z,0.70
2023-02-18T15:59:35.303Z,0.80
2023-02-18T16:04:41.329Z,0.70
2023-02-18T16:09:46.251Z,0.93
2023-02-18T16:14:55.497Z,0.40
2023-02-18T16:20:18.434Z,0.70
2023-02-18T16:25:45.748Z,0.80
2023-02-18T16:30:50.151Z,0.80
2023-02-18T16:35:53.753Z,0.80
2023-02-18T16:41:01.864Z,0.80
2023-02-18T16:46:10.624Z,0.90
2023-02-18T16:51:16.856Z,0.50
2023-02-18T16:56:24.941Z,0.52
2023-02-18T17:01:31.395Z,0.70
2023-02-18T17:06:35.376Z,0.65
2023-02-18T17:11:41.296Z,0.80
2023-02-18T17:17:07.541Z,0.70
2023-02-18T17:22:18.826Z,1.10
2023-02-18T17:27:23.445Z,0.73
2023-02-18T17:32:27.288Z,0.77
2023-02-18T17:37:30.672Z,0.68
2023-02-18T17:42:36.632Z,0.98
2023-02-18T17:47:41.034Z,0.98
2023-02-18T17:52:55.516Z,1.08
2023-02-18T17:58:00.376Z,1.17
2023-02-18T18:03:04.263Z,1.35
2023-02-18T18:08:08.506Z,1.20
2023-02-18T18:13:19.673Z,0.80
2023-02-18T18:18:25.152Z,1.10
2023-02-18T18:23:30.068Z,1.25
2023-02-18T18:28:37.264Z,1.10
2023-02-18T18:33:44.064Z,1.00
2023-02-18T18:38:48.618Z,1.20
2023-02-18T18:43:53.268Z,0.90
2023-02-18T18:48:56.744Z,0.90
2023-02-18T18:54:00.421Z,0.98
2023-02-18T18:59:05.001Z,1.10
2023-02-18T19:04:08.380Z,0.90
2023-02-18T19:09:13.891Z,1.00
2023-02-18T19:14:23.036Z,0.90
2023-02-18T19:19:28.450Z,0.98
2023-02-18T19:24:31.808Z,1.25
2023-02-18T19:29:36.698Z,0.73
2023-02-18T19:34:39.930Z,0.80
2023-02-18T19:39:43.472Z,0.90
2023-02-18T19:44:48.222Z,1.00
2023-02-18T19:49:51.759Z,0.85
2023-02-18T19:54:58.271Z,0.60
2023-02-18T20:00:03.904Z,0.80
2023-02-18T20:05:08.223Z,1.38
2023-02-18T20:10:14.004Z,0.80
2023-02-18T20:15:18.866Z,1.00
2023-02-18T20:20:23.550Z,0.90
2023-02-18T20:25:29.448Z,1.00
2023-02-18T20:30:34.363Z,0.90
2023-02-18T20:35:37.931Z,0.90
2023-02-18T20:40:45.196Z,0.85
2023-02-18T20:45:53.158Z,0.88
2023-02-18T20:50:56.481Z,0.90
2023-02-18T20:56:00.002Z,0.68
2023-02-18T21:01:07.310Z,0.85
2023-02-18T21:06:17.159Z,1.00
2023-02-18T21:11:27.028Z,0.77
2023-02-18T21:16:32.440Z,1.05
2023-02-18T21:21:36.078Z,1.00
2023-02-18T21:26:39.926Z,0.82
2023-02-18T21:31:45.035Z,1.05
2023-02-18T21:36:48.604Z,1.35
2023-02-18T21:41:55.258Z,1.33
2023-02-18T21:47:00.069Z,1.05
2023-02-18T21:52:09.594Z,1.15
2023-02-18T21:57:16.193Z,1.00
2023-02-18T22:02:22.597Z,1.20
2023-02-18T22:07:27.897Z,1.23
2023-02-18T22:12:32.123Z,1.30
2023-02-18T22:17:36.908Z,1.17
2023-02-18T22:22:40.434Z,1.33
2023-02-18T22:27:43.794Z,1.30
2023-02-18T22:32:48.285Z,1.20
2023-02-18T22:37:51.556Z,1.40
2023-02-18T22:42:54.792Z,1.58
2023-02-18T22:47:59.404Z,1.35
2023-02-18T22:53:02.697Z,1.75
2023-02-18T22:58:06.057Z,1.38
2023-02-18T23:03:10.710Z,1.25
2023-02-18T23:08:14.013Z,1.52
2023-02-18T23:13:17.245Z,1.13
2023-02-18T23:18:21.880Z,1.50
2023-02-18T23:23:25.180Z,1.40
2023-02-18T23:28:29.116Z,1.55
2023-02-18T23:33:33.746Z,1.30
2023-02-18T23:38:37.029Z,1.27
2023-02-18T23:43:40.283Z,1.60
2023-02-18T23:48:45.211Z,1.60
2023-02-18T23:53:48.631Z,1.50
2023-02-18T23:58:54.914Z,1.52
